INFORMACIÓN METAR y TAF
METAR FOR LEAL
ADDS - METARS form results

(0135 UTC 26 February 2020)
Data provider http://aviationweather.gov/metar/data/
 
METAR text: LEAL 260130Z 30020KT CAVOK 17/06 Q1017 NOSIG
Conditions at: LEAL (ALICANTE/EL ALTE, ES) observed 0130 UTC 26 February 2020
Temperature: 17.0°C (63°F)
Dewpoint: 6.0°C (43°F) [RH = 48%]
Pressure (altimeter): 30.03 inches Hg (1017.0 mb)
Winds: from the WNW (300 degrees) at 23 MPH (20 knots; 10.3 m/s)
Visibility: 6 or more miles (10+ km)
Ceiling: ceiling and visibility are OK
Clouds: unknown
Weather: no significant weather observed at this time

METAR text: LEAL 260100Z 30021KT CAVOK 17/05 Q1017 NOSIG
Conditions at: LEAL (ALICANTE/EL ALTE, ES) observed 0100 UTC 26 February 2020
Temperature: 17.0°C (63°F)
Dewpoint: 5.0°C (41°F) [RH = 45%]
Pressure (altimeter): 30.03 inches Hg (1017.0 mb)
Winds: from the WNW (300 degrees) at 24 MPH (21 knots; 10.8 m/s)
Visibility: 6 or more miles (10+ km)
Ceiling: ceiling and visibility are OK
Clouds: unknown
Weather: no significant weather observed at this time

Forecast for: AMD
Text: TAF AMD LEAL 260018Z 2600/2624 30013KT CAVOK TX21/2612Z TN08/2606Z
Forecast period: 0000 to 1500 UTC 26 February 2020
Forecast type: FROM: standard forecast or significant change
Winds: from the WNW (300 degrees) at 15 MPH (13 knots; 6.7 m/s)
Visibility: 6 or more miles 10+ km)
Ceiling: unknown
Clouds: missing
Weather: no significant weather forecast for this period
Text: TEMPO 2600/2606 30018G30KT
Forecast period: 0000 to 0600 UTC 26 February 2020
Forecast type: TEMPORARY: The following changes expected for less than half the time period
Winds: from the WNW (300 degrees) at 21 MPH (18 knots; 9.3 m/s)
gusting to 34 MPH (30 knots; 15.4 m/s)
Visibility: missing
Ceiling: unknown
Clouds: missing
Weather: no significant weather forecast for this period
Text: BECMG 2615/2617 12006KT
Forecast period: 1500 UTC 26 February 2020 to 0000 UTC 27 February 2020
Forecast type: BECOMING: Conditions expected to become as follows by 1700 UTC 26 February 2020
Winds: from the ESE (120 degrees) at 7 MPH (6 knots; 3.1 m/s)
Visibility: 6 or more miles 10+ km)
Ceiling: unknown
Clouds: missing
Weather: no significant weather forecast for this period

 MAPA DE AEROPUERTO

 INFORMACIÓN DE PISTA
Pista 10 Longitud 9842 ft Ancho 148 ft
Elevación 142 ft Umbral desplazado 0 ft Rumbo de pista 100
Pista 28 Longitud 9842 ft Ancho 148 ft
Elevación 44 ft Umbral desplazado 0 ft Rumbo de pista 280

 FRECUANCIAS DEL AEROPUERTO
Tipo APP Nombre APP Frecuencia 118.8 MHZ
Tipo ATIS Nombre ATIS Frecuencia 113.8 MHZ
Tipo GND Nombre GND Frecuencia 121.7 MHZ
Tipo TWR Nombre TWR Frecuencia 118.15 MHZ

 RADIO AYUDAS DEL AEROPUERTO
Tipo VOR-DME Nombre Alicante Frecuencia 113800 KHZ
Tipo VOR-DME Nombre Alicante Frecuencia 114650 KHZ



Powered by Virtual Airlines Manager [v2.6.2]